Time;durP1;ratioP1;P1;durP2;ratioP2;P2;SDS_P1;SDS_P2;PMS_P1;PMS_P2;Temp;Humidity;BMP_temperature;BMP_pressure;BME280_temperature;BME280_humidity;BME280_pressure;Samples;Min_cycle;Max_cycle;Signal;HPM_P1;HPM_P2
2022/09/30 00:01:34;;;;;;;0.45;0.17;;;15.60;72.10;;;;;;4807409;29;20051;-75
2022/09/30 00:04:01;;;;;;;0.40;0.20;;;15.50;72.10;;;;;;4807797;29;20126;-77
2022/09/30 00:06:28;;;;;;;0.43;0.25;;;15.50;72.10;;;;;;4811373;29;20050;-76
2022/09/30 00:08:55;;;;;;;1.33;0.38;;;15.50;72.00;;;;;;4811976;29;20094;-74
2022/09/30 00:11:27;;;;;;;0.82;0.52;;;15.50;72.10;;;;;;4811219;29;20050;-74
2022/09/30 00:13:54;;;;;;;0.30;0.20;;;15.40;72.00;;;;;;4811463;29;20141;-76
2022/09/30 00:16:22;;;;;;;0.88;0.40;;;15.50;72.20;;;;;;4811319;29;20051;-76
2022/09/30 00:18:48;;;;;;;0.60;0.20;;;15.50;72.10;;;;;;4795392;29;20439;-75
2022/09/30 00:21:15;;;;;;;0.77;0.30;;;15.40;72.00;;;;;;4811400;29;20138;-75
2022/09/30 00:23:43;;;;;;;1.13;0.40;;;15.40;72.00;;;;;;4810923;29;20474;-75
2022/09/30 00:26:18;;;;;;;0.63;0.40;;;15.40;72.00;;;;;;4811713;29;20133;-75
2022/09/30 00:28:45;;;;;;;2.05;0.40;;;15.40;72.00;;;;;;4794610;29;20468;-76
2022/09/30 00:31:14;;;;;;;0.88;0.30;;;15.40;72.10;;;;;;4811160;29;20093;-75
2022/09/30 00:33:40;;;;;;;1.63;0.30;;;15.40;72.00;;;;;;4810936;29;20090;-75
2022/09/30 00:36:07;;;;;;;1.00;0.63;;;15.40;72.10;;;;;;4811240;29;20078;-75
2022/09/30 00:38:32;;;;;;;2.22;0.75;;;15.30;72.00;;;;;;4794672;29;20055;-75
2022/09/30 00:41:01;;;;;;;0.82;0.50;;;15.30;71.90;;;;;;4810739;29;20055;-75
2022/09/30 00:43:52;;;;;;;1.00;0.70;;;15.40;72.10;;;;;;4810525;29;20343;-75
2022/09/30 00:46:39;;;;;;;0.85;0.40;;;15.40;71.70;;;;;;4811086;29;20114;-75
2022/09/30 00:49:17;;;;;;;0.90;0.52;;;15.30;71.50;;;;;;4810681;29;20063;-74
2022/09/30 00:51:49;;;;;;;0.70;0.40;;;15.30;71.80;;;;;;4792186;30;20059;-75
2022/09/30 00:54:24;;;;;;;1.80;0.30;;;15.30;71.90;;;;;;4800354;29;20117;-75
2022/09/30 00:56:59;;;;;;;1.02;0.43;;;15.30;71.80;;;;;;4810727;29;20066;-75
2022/09/30 00:59:32;;;;;;;0.63;0.30;;;15.30;72.00;;;;;;4810943;29;20058;-78
2022/09/30 01:01:59;;;;;;;0.65;0.55;;;15.30;71.90;;;;;;4794568;29;20119;-76
2022/09/30 01:04:30;;;;;;;1.20;0.50;;;15.30;71.80;;;;;;4810435;29;20054;-75
2022/09/30 01:06:59;;;;;;;2.42;0.68;;;15.30;71.90;;;;;;4811000;29;20078;-75
2022/09/30 01:09:25;;;;;;;0.50;0.35;;;15.30;71.70;;;;;;4810333;29;20043;-74
2022/09/30 01:11:51;;;;;;;0.95;0.32;;;15.20;71.70;;;;;;4810376;29;20051;-75
2022/09/30 01:14:22;;;;;;;0.57;0.43;;;15.20;71.90;;;;;;4810250;29;20398;-76
2022/09/30 01:17:03;;;;;;;1.25;0.47;;;15.20;71.60;;;;;;4810174;29;20054;-74
2022/09/30 01:19:44;;;;;;;1.35;0.60;;;15.20;71.40;;;;;;4809943;29;20500;-76
2022/09/30 01:22:16;;;;;;;0.98;0.50;;;15.20;71.90;;;;;;4810007;29;20069;-77
2022/09/30 01:25:10;;;;;;;1.15;0.40;;;15.20;71.90;;;;;;4810133;29;20092;-75
2022/09/30 01:27:56;;;;;;;0.73;0.40;;;15.20;71.50;;;;;;4809803;29;20474;-76
2022/09/30 01:30:42;;;;;;;0.70;0.50;;;15.20;71.60;;;;;;4811058;29;20058;-75
2022/09/30 01:34:09;;;;;;;1.00;0.60;;;15.20;71.60;;;;;;4802060;29;20073;-76
2022/09/30 01:37:12;;;;;;;0.73;0.30;;;15.20;71.40;;;;;;4760323;30;20059;-76
2022/09/30 01:40:21;;;;;;;0.70;0.45;;;15.20;70.90;;;;;;4790357;30;20387;-75
2022/09/30 01:43:04;;;;;;;0.88;0.40;;;15.20;71.40;;;;;;4793865;29;20062;-75
2022/09/30 01:45:50;;;;;;;1.90;0.47;;;15.20;71.70;;;;;;4809756;29;20047;-76
2022/09/30 01:48:26;;;;;;;0.60;0.50;;;15.20;71.50;;;;;;4809069;29;20432;-77
2022/09/30 01:50:54;;;;;;;0.60;0.30;;;15.10;71.20;;;;;;4809996;29;20159;-76
2022/09/30 01:53:49;;;;;;;1.15;0.40;;;15.10;71.10;;;;;;4809338;29;20383;-75
2022/09/30 01:56:21;;;;;;;0.60;0.40;;;15.10;71.00;;;;;;4810071;29;20050;-75
2022/09/30 01:58:59;;;;;;;0.60;0.35;;;15.10;71.30;;;;;;4809335;29;20530;-75
2022/09/30 02:01:38;;;;;;;0.98;0.40;;;15.00;71.10;;;;;;4809662;29;20066;-77
2022/09/30 02:04:18;;;;;;;0.73;0.43;;;15.10;71.10;;;;;;4799401;29;20360;-76
2022/09/30 02:06:48;;;;;;;0.75;0.38;;;15.10;71.30;;;;;;4809592;29;20070;-76
2022/09/30 02:09:27;;;;;;;0.95;0.55;;;15.10;71.20;;;;;;4809400;29;20119;-75
2022/09/30 02:11:57;;;;;;;0.85;0.50;;;15.00;70.90;;;;;;4793345;29;20054;-75
2022/09/30 02:14:32;;;;;;;1.38;0.30;;;15.00;71.10;;;;;;4809447;29;20059;-76
2022/09/30 02:17:07;;;;;;;1.17;0.38;;;15.00;71.20;;;;;;4809058;29;20084;-74
2022/09/30 02:19:40;;;;;;;0.75;0.50;;;15.00;70.90;;;;;;4808956;29;20197;-77
2022/09/30 02:22:36;;;;;;;0.82;0.50;;;14.90;71.20;;;;;;4792543;29;20082;-77
2022/09/30 02:25:05;;;;;;;0.90;0.30;;;14.90;71.10;;;;;;4793385;29;20129;-75
2022/09/30 02:27:42;;;;;;;0.63;0.40;;;14.90;71.20;;;;;;4792675;29;20059;-75
2022/09/30 02:30:11;;;;;;;0.65;0.30;;;14.90;71.20;;;;;;4809026;29;20043;-76
2022/09/30 02:32:39;;;;;;;0.60;0.40;;;14.90;71.30;;;;;;4808516;29;20055;-75
2022/09/30 02:35:21;;;;;;;0.40;0.30;;;14.90;71.30;;;;;;4792996;29;20458;-77
2022/09/30 02:37:52;;;;;;;1.13;0.32;;;14.90;71.40;;;;;;4801740;29;20063;-75
2022/09/30 02:40:38;;;;;;;0.40;0.30;;;14.90;71.30;;;;;;4809367;29;20058;-75
2022/09/30 02:43:04;;;;;;;0.65;0.40;;;14.90;71.40;;;;;;4808826;29;20100;-75
2022/09/30 02:45:45;;;;;;;0.88;0.30;;;14.90;71.30;;;;;;4793662;29;20082;-76
2022/09/30 02:49:00;;;;;;;0.95;0.47;;;14.90;71.40;;;;;;4808070;29;20069;-77
2022/09/30 02:51:52;;;;;;;1.00;0.32;;;14.90;70.80;;;;;;4797671;29;20062;-75
2022/09/30 02:54:30;;;;;;;1.23;0.40;;;14.90;71.20;;;;;;4792770;29;20134;-76
2022/09/30 02:57:05;;;;;;;0.65;0.40;;;14.90;71.20;;;;;;4807522;29;20108;-76
2022/09/30 02:59:34;;;;;;;1.20;0.40;;;14.90;71.40;;;;;;4808091;29;20364;-75
2022/09/30 03:02:00;;;;;;;0.90;0.40;;;14.90;71.20;;;;;;4808417;29;20088;-75
2022/09/30 03:04:33;;;;;;;0.57;0.45;;;14.90;71.20;;;;;;4808171;29;20169;-76
2022/09/30 03:06:59;;;;;;;1.65;0.47;;;14.90;71.80;;;;;;4792878;29;20470;-77
2022/09/30 03:09:26;;;;;;;1.40;0.60;;;14.80;71.10;;;;;;4808326;29;20107;-77
2022/09/30 03:12:06;;;;;;;0.68;0.30;;;14.80;71.20;;;;;;4808253;29;20063;-76
2022/09/30 03:15:00;;;;;;;1.58;0.50;;;14.80;71.10;;;;;;4805993;29;20103;-76
2022/09/30 03:17:38;;;;;;;;;;;14.80;70.60;;;;;;4807948;29;20093;-78
2022/09/30 03:20:21;;;;;;;0.95;0.50;;;14.80;70.10;;;;;;4807248;29;19936;-74
2022/09/30 03:23:21;;;;;;;1.23;0.50;;;14.80;71.20;;;;;;4808036;29;20123;-78
2022/09/30 03:25:53;;;;;;;0.50;0.30;;;14.80;70.40;;;;;;4807529;29;20050;-76
2022/09/30 03:28:35;;;;;;;0.82;0.55;;;14.80;71.10;;;;;;4807589;29;20062;-75
2022/09/30 03:31:26;;;;;;;1.95;0.68;;;14.80;71.20;;;;;;4807641;29;20131;-75
2022/09/30 03:34:02;;;;;;;1.17;0.30;;;14.80;71.10;;;;;;4775559;29;20132;-77
2022/09/30 03:36:38;;;;;;;0.82;0.28;;;14.80;71.20;;;;;;4807781;29;20067;-75
2022/09/30 03:39:10;;;;;;;3.53;0.50;;;14.80;71.10;;;;;;4807185;29;20061;-74
2022/09/30 03:41:48;;;;;;;1.02;0.40;;;14.80;71.20;;;;;;4807838;29;20125;-74
2022/09/30 03:44:22;;;;;;;0.70;0.30;;;14.80;70.90;;;;;;4808068;29;20061;-77
2022/09/30 03:46:55;;;;;;;0.82;0.30;;;14.80;71.20;;;;;;4808579;29;20065;-76
2022/09/30 03:49:27;;;;;;;0.80;0.50;;;14.80;71.30;;;;;;4807734;29;20062;-75
2022/09/30 03:51:53;;;;;;;0.75;0.43;;;14.80;71.30;;;;;;4789863;30;20130;-76
2022/09/30 03:54:19;;;;;;;2.78;0.88;;;14.80;71.40;;;;;;4792165;29;20069;-75
2022/09/30 03:56:45;;;;;;;1.80;0.60;;;14.80;71.20;;;;;;4792292;29;20513;-77
2022/09/30 03:59:16;;;;;;;0.70;0.50;;;14.80;71.20;;;;;;4807599;29;20060;-75
2022/09/30 04:01:42;;;;;;;1.67;0.75;;;14.80;71.10;;;;;;4807806;29;20055;-76
2022/09/30 04:04:08;;;;;;;1.17;0.38;;;14.80;71.20;;;;;;4806975;29;20051;-76
2022/09/30 04:06:33;;;;;;;1.70;0.50;;;14.80;71.00;;;;;;4807211;29;20046;-75
2022/09/30 04:08:59;;;;;;;1.58;0.47;;;14.80;71.10;;;;;;4808082;29;20346;-75
2022/09/30 04:11:25;;;;;;;1.00;0.63;;;14.80;71.10;;;;;;4807560;29;20362;-76
2022/09/30 04:13:51;;;;;;;1.90;0.75;;;14.80;71.20;;;;;;4807861;29;20123;-76
2022/09/30 04:16:16;;;;;;;1.60;0.60;;;14.80;71.10;;;;;;4807008;29;20058;-75
2022/09/30 04:18:43;;;;;;;0.63;0.50;;;14.80;71.10;;;;;;4807370;29;20074;-75
2022/09/30 04:21:11;;;;;;;0.75;0.50;;;14.80;71.10;;;;;;4807795;29;20051;-75
2022/09/30 04:23:39;;;;;;;0.70;0.50;;;14.80;71.30;;;;;;4792009;29;20054;-75
2022/09/30 04:26:07;;;;;;;1.25;0.70;;;14.80;71.20;;;;;;4791574;29;20093;-75
2022/09/30 04:28:33;;;;;;;1.75;0.98;;;14.80;71.00;;;;;;4791523;29;20059;-75
2022/09/30 04:31:03;;;;;;;1.00;0.60;;;14.80;71.10;;;;;;4807539;29;20046;-76
2022/09/30 04:33:29;;;;;;;1.02;0.50;;;14.80;71.10;;;;;;4807341;29;20134;-75
2022/09/30 04:35:57;;;;;;;1.58;0.60;;;14.80;71.20;;;;;;4807254;29;20474;-75
2022/09/30 04:38:23;;;;;;;1.30;0.50;;;14.80;71.20;;;;;;4808265;29;20459;-75
2022/09/30 04:40:50;;;;;;;1.23;0.75;;;14.80;71.10;;;;;;4791580;29;20047;-76
2022/09/30 04:43:18;;;;;;;1.08;0.60;;;14.80;71.20;;;;;;4807592;29;20470;-76
2022/09/30 04:45:47;;;;;;;2.08;0.60;;;14.80;71.10;;;;;;4807584;29;20077;-76
2022/09/30 04:48:13;;;;;;;2.28;0.60;;;14.80;71.00;;;;;;4807160;29;20047;-77
2022/09/30 04:50:40;;;;;;;3.08;0.85;;;14.80;70.80;;;;;;4798352;29;20051;-76
2022/09/30 04:53:16;;;;;;;1.33;0.57;;;14.60;70.30;;;;;;4792754;30;20101;-74
2022/09/30 06:13:52;;;;;;;8.48;2.13;;;14.70;69.30;;;;;;5572455;23;20045;-76
2022/09/30 06:16:19;;;;;;;9.38;1.63;;;14.70;69.50;;;;;;4880453;29;20085;-76
2022/09/30 06:18:44;;;;;;;8.23;1.83;;;14.80;69.50;;;;;;4882603;29;20475;-77
2022/09/30 06:21:14;;;;;;;8.32;1.27;;;14.80;69.50;;;;;;4882799;29;20085;-77
2022/09/30 06:23:40;;;;;;;6.30;1.10;;;14.80;69.50;;;;;;4883440;29;20124;-76
2022/09/30 06:26:08;;;;;;;6.50;1.17;;;14.90;69.60;;;;;;4882687;29;20477;-77
2022/09/30 06:28:34;;;;;;;6.97;1.83;;;14.90;69.60;;;;;;4882766;29;20448;-76
2022/09/30 06:31:01;;;;;;;9.73;1.52;;;14.90;69.60;;;;;;4882514;29;20052;-78
2022/09/30 06:33:27;;;;;;;6.75;1.60;;;14.90;69.50;;;;;;4882304;29;20052;-77
2022/09/30 06:35:53;;;;;;;4.07;1.15;;;14.90;69.50;;;;;;4882811;29;20114;-78
2022/09/30 06:38:21;;;;;;;5.57;1.20;;;14.90;69.50;;;;;;4882559;29;20060;-77
2022/09/30 06:40:50;;;;;;;4.35;0.82;;;15.00;69.50;;;;;;4883248;29;20049;-77
2022/09/30 06:43:19;;;;;;;5.13;0.90;;;15.00;69.50;;;;;;4882484;29;20064;-77
2022/09/30 06:45:47;;;;;;;5.07;1.00;;;15.00;69.50;;;;;;4882068;29;20049;-77
2022/09/30 06:48:13;;;;;;;3.90;0.98;;;15.00;69.50;;;;;;4881926;29;20365;-77
2022/09/30 06:50:38;;;;;;;3.15;0.98;;;15.00;69.40;;;;;;4882005;29;20120;-77
2022/09/30 06:53:07;;;;;;;4.88;1.60;;;15.00;69.40;;;;;;4881640;29;20061;-77
2022/09/30 06:55:37;;;;;;;2.03;1.00;;;15.00;69.40;;;;;;4881371;29;20476;-77
2022/09/30 06:58:10;;;;;;;3.67;1.48;;;15.10;69.40;;;;;;4881683;29;20060;-77
2022/09/30 07:00:36;;;;;;;3.65;1.17;;;15.10;69.30;;;;;;4881946;29;20071;-77
2022/09/30 07:03:04;;;;;;;3.58;1.00;;;15.10;69.40;;;;;;4881654;29;20041;-78
2022/09/30 07:05:31;;;;;;;3.55;1.25;;;15.10;69.40;;;;;;4881751;29;20052;-77
2022/09/30 07:07:57;;;;;;;4.70;0.90;;;15.10;69.40;;;;;;4881789;29;20092;-77
2022/09/30 07:10:23;;;;;;;2.60;1.10;;;15.10;69.40;;;;;;4881689;29;20053;-74
2022/09/30 07:12:52;;;;;;;3.80;1.00;;;15.10;69.50;;;;;;4881605;29;20112;-78
2022/09/30 07:15:22;;;;;;;4.13;1.17;;;15.10;69.60;;;;;;4879955;29;20388;-78
2022/09/30 07:17:57;;;;;;;2.83;1.02;;;15.10;69.70;;;;;;4881671;29;20145;-77
2022/09/30 07:20:23;;;;;;;2.55;0.80;;;15.10;69.90;;;;;;4882035;29;20056;-76
2022/09/30 07:22:49;;;;;;;1.42;0.80;;;15.10;69.90;;;;;;4882133;29;20112;-77
2022/09/30 07:25:16;;;;;;;3.40;1.20;;;15.10;69.90;;;;;;4881234;29;20460;-78
2022/09/30 07:27:42;;;;;;;2.63;1.77;;;15.10;70.10;;;;;;4880382;29;20057;-73
2022/09/30 07:30:08;;;;;;;4.47;1.98;;;15.20;70.20;;;;;;4882025;29;20049;-76
2022/09/30 07:32:34;;;;;;;6.57;2.20;;;15.10;70.30;;;;;;4864617;29;20112;-80
2022/09/30 07:34:59;;;;;;;4.78;1.85;;;15.20;70.50;;;;;;4871239;29;20045;-81
2022/09/30 07:37:26;;;;;;;3.88;1.90;;;15.20;70.60;;;;;;4881777;29;20565;-77
2022/09/30 07:39:52;;;;;;;3.97;2.08;;;15.20;70.70;;;;;;4882782;29;20445;-77
2022/09/30 07:42:21;;;;;;;4.95;1.50;;;15.20;70.80;;;;;;4900304;29;20632;-78
2022/09/30 07:44:50;;;;;;;15.13;2.20;;;15.20;70.80;;;;;;4896715;29;20052;-76
2022/09/30 07:47:17;;;;;;;4.93;1.63;;;15.20;70.80;;;;;;4888594;29;20049;-77
2022/09/30 07:49:43;;;;;;;5.20;1.63;;;15.20;70.80;;;;;;4880010;29;20418;-75
2022/09/30 07:52:11;;;;;;;10.93;1.70;;;15.20;70.90;;;;;;4880804;29;20357;-75
2022/09/30 07:54:38;;;;;;;6.70;1.83;;;15.20;70.90;;;;;;4880553;29;20140;-77
2022/09/30 07:57:04;;;;;;;4.80;1.70;;;15.20;71.10;;;;;;4881324;29;20057;-73
2022/09/30 07:59:33;;;;;;;7.60;2.38;;;15.30;71.40;;;;;;4880915;29;20124;-73
2022/09/30 08:02:00;;;;;;;2.97;1.95;;;15.30;71.70;;;;;;4880646;29;20109;-74
2022/09/30 08:04:26;;;;;;;4.63;2.00;;;15.30;71.90;;;;;;4881136;29;20067;-74
2022/09/30 08:06:54;;;;;;;5.78;2.17;;;15.30;72.00;;;;;;4881308;29;20452;-73
2022/09/30 08:09:23;;;;;;;3.08;1.77;;;15.30;72.20;;;;;;4881023;29;20448;-73
2022/09/30 08:11:49;;;;;;;4.25;1.80;;;15.30;72.50;;;;;;4880658;29;20049;-74
2022/09/30 08:14:19;;;;;;;6.80;1.98;;;15.30;72.60;;;;;;4879783;29;20045;-80
2022/09/30 08:16:45;;;;;;;8.27;2.05;;;15.40;72.70;;;;;;4863615;29;20135;-80
2022/09/30 08:19:17;;;;;;;5.03;1.40;;;15.30;72.50;;;;;;4880677;29;20116;-80
2022/09/30 08:21:43;;;;;;;7.93;1.50;;;15.40;72.60;;;;;;4880040;29;20045;-79
2022/09/30 08:24:10;;;;;;;5.57;1.45;;;15.30;72.50;;;;;;4880490;29;20432;-81
2022/09/30 08:26:37;;;;;;;4.43;1.45;;;15.30;72.60;;;;;;4882728;29;20052;-78
2022/09/30 08:29:03;;;;;;;3.55;1.15;;;15.40;72.60;;;;;;4883306;29;20109;-79
2022/09/30 08:31:29;;;;;;;4.30;1.10;;;15.40;72.60;;;;;;4882090;29;20416;-80
2022/09/30 08:33:55;;;;;;;5.20;1.20;;;15.40;72.50;;;;;;4883584;29;20093;-74
2022/09/30 08:36:23;;;;;;;5.45;1.02;;;15.40;72.50;;;;;;4883302;29;20049;-76
2022/09/30 08:38:49;;;;;;;4.10;1.15;;;15.40;72.60;;;;;;4883351;29;20068;-78
2022/09/30 08:41:31;;;;;;;2.85;0.80;;;15.40;72.60;;;;;;4883400;29;20057;-75
2022/09/30 08:44:21;;;;;;;5.20;0.98;;;15.50;72.60;;;;;;4883691;29;20057;-76
2022/09/30 08:46:58;;;;;;;1.90;0.73;;;15.50;72.60;;;;;;4883859;29;20071;-77
2022/09/30 08:50:03;;;;;;;3.40;1.00;;;15.50;72.50;;;;;;4883346;29;20104;-75
2022/09/30 08:52:37;;;;;;;3.35;0.70;;;15.50;72.50;;;;;;4881790;29;20479;-81
2022/09/30 08:55:05;;;;;;;4.95;0.70;;;15.50;72.50;;;;;;4883497;29;20053;-79
2022/09/30 08:57:51;;;;;;;3.53;0.95;;;15.50;72.40;;;;;;4882142;29;20057;-77
2022/09/30 09:00:18;;;;;;;2.40;0.50;;;15.50;72.30;;;;;;4866245;29;20052;-80
2022/09/30 09:02:52;;;;;;;5.50;1.13;;;15.50;72.50;;;;;;4883016;29;20064;-78
2022/09/30 09:05:24;;;;;;;2.55;0.68;;;15.60;72.60;;;;;;4882645;29;20057;-72
2022/09/30 09:08:13;;;;;;;1.10;0.60;;;15.60;72.30;;;;;;4900479;29;20104;-81
2022/09/30 09:10:38;;;;;;;0.77;0.50;;;15.60;72.20;;;;;;4900255;29;20052;-77
2022/09/30 09:13:45;;;;;;;4.05;0.60;;;15.60;72.20;;;;;;4881849;29;20068;-77
2022/09/30 09:16:14;;;;;;;2.65;0.47;;;15.60;72.20;;;;;;4812947;29;1152734;-81
2022/09/30 09:18:51;;;;;;;3.70;0.60;;;15.60;72.20;;;;;;4882926;29;20153;-81
2022/09/30 09:21:32;;;;;;;4.35;0.82;;;15.60;72.30;;;;;;4867157;29;20041;-82
2022/09/30 09:24:00;;;;;;;4.63;0.68;;;15.60;72.40;;;;;;4882466;29;20431;-80
2022/09/30 09:26:29;;;;;;;2.33;0.68;;;15.60;72.50;;;;;;4882788;29;20088;-80
2022/09/30 09:29:13;;;;;;;4.00;0.80;;;15.60;72.60;;;;;;4882761;29;20132;-81
2022/09/30 09:31:39;;;;;;;1.38;0.60;;;15.60;72.70;;;;;;4882766;29;20128;-81
2022/09/30 09:34:10;;;;;;;3.22;0.60;;;15.70;72.70;;;;;;4866935;29;20532;-80
2022/09/30 09:36:47;;;;;;;3.60;1.05;;;15.70;72.60;;;;;;4866315;29;20136;-78
2022/09/30 09:39:31;;;;;;;1.83;0.85;;;15.70;72.50;;;;;;4883092;29;20052;-81
2022/09/30 09:42:44;;;;;;;5.78;1.42;;;15.70;72.40;;;;;;4882309;29;20097;-83
2022/09/30 09:45:37;;;;;;;3.15;0.65;;;15.70;72.40;;;;;;4844142;29;20072;-82
2022/09/30 09:48:09;;;;;;;5.38;0.93;;;15.70;72.40;;;;;;4873384;29;20377;-82
2022/09/30 09:50:48;;;;;;;4.45;0.90;;;15.70;72.40;;;;;;4883285;29;20052;-82
2022/09/30 09:53:29;;;;;;;2.42;0.57;;;15.70;72.40;;;;;;4866604;29;20045;-82
2022/09/30 09:55:58;;;;;;;1.75;0.45;;;15.80;72.50;;;;;;4866572;29;20115;-82
2022/09/30 09:58:25;;;;;;;1.88;0.50;;;15.80;72.50;;;;;;4866676;29;20041;-82
2022/09/30 10:03:23;;;;;;;2.25;0.50;;;15.80;72.40;;;;;;4881603;29;20107;-82
2022/09/30 10:06:05;;;;;;;3.53;0.88;;;15.80;72.40;;;;;;4866343;29;20064;-83
2022/09/30 10:08:34;;;;;;;4.05;0.75;;;15.80;72.40;;;;;;4882844;29;20041;-81
2022/09/30 10:11:02;;;;;;;3.42;0.52;;;15.80;72.50;;;;;;4866683;29;20041;-81
2022/09/30 10:13:36;;;;;;;3.80;0.57;;;15.80;72.40;;;;;;4882618;29;20053;-84
2022/09/30 10:16:03;;;;;;;2.85;0.60;;;15.80;72.40;;;;;;4865943;29;20149;-76
2022/09/30 10:18:33;;;;;;;2.25;0.55;;;15.80;72.40;;;;;;4882712;29;20109;-82
2022/09/30 10:21:06;;;;;;;3.63;0.50;;;15.80;72.40;;;;;;4883028;29;20524;-81
2022/09/30 10:23:41;;;;;;;2.88;1.10;;;15.80;72.40;;;;;;4882502;29;20060;-81
2022/09/30 10:26:12;;;;;;;2.17;0.75;;;15.90;72.30;;;;;;4866694;29;20188;-81
2022/09/30 10:28:51;;;;;;;1.20;0.60;;;15.90;72.20;;;;;;4866240;29;20053;-82
2022/09/30 10:31:33;;;;;;;3.13;0.80;;;15.90;72.00;;;;;;4882509;29;20053;-81
2022/09/30 10:34:22;;;;;;;1.80;0.65;;;15.90;71.90;;;;;;4832281;29;20057;-80
2022/09/30 10:36:52;;;;;;;1.55;0.57;;;15.90;71.80;;;;;;4833070;29;20093;-82
2022/09/30 10:39:23;;;;;;;2.70;0.77;;;15.90;71.90;;;;;;4832054;29;20521;-82
2022/09/30 10:41:51;;;;;;;2.63;0.55;;;15.90;72.00;;;;;;4849972;29;20384;-82
2022/09/30 10:44:22;;;;;;;3.28;0.82;;;15.90;72.00;;;;;;4866069;29;20133;-82
2022/09/30 10:46:52;;;;;;;2.95;0.52;;;15.90;72.00;;;;;;4882553;29;20368;-76
2022/09/30 10:49:26;;;;;;;2.10;0.82;;;15.90;71.90;;;;;;4850432;29;20135;-83
2022/09/30 10:51:51;;;;;;;3.15;0.82;;;15.90;72.00;;;;;;4880774;29;20048;-80
2022/09/30 10:54:45;;;;;;;3.42;0.85;;;16.00;72.10;;;;;;4881959;29;20056;-81
2022/09/30 10:57:28;;;;;;;1.60;1.20;;;16.00;72.00;;;;;;4881655;29;20476;-81
2022/09/30 11:00:02;;;;;;;2.45;1.05;;;16.00;71.90;;;;;;4865411;29;20052;-81
2022/09/30 11:02:28;;;;;;;;;;;16.00;71.90;;;;;;4865883;29;20057;-81
2022/09/30 11:05:23;;;;;;;2.65;0.80;;;16.00;71.70;;;;;;4866181;29;20011;-82
2022/09/30 11:07:49;;;;;;;1.00;0.65;;;16.00;71.90;;;;;;4881704;29;20105;-82
2022/09/30 11:10:39;;;;;;;2.90;0.80;;;16.00;71.90;;;;;;4865379;29;20064;-79
2022/09/30 11:13:25;;;;;;;4.00;0.95;;;16.00;71.70;;;;;;4879529;29;20041;-82
2022/09/30 11:16:13;;;;;;;4.00;0.82;;;16.00;71.60;;;;;;4849707;29;20053;-82
2022/09/30 11:19:10;;;;;;;1.77;0.52;;;16.00;71.60;;;;;;4880550;29;20060;-81
2022/09/30 11:21:41;;;;;;;2.17;0.80;;;16.00;71.70;;;;;;4865087;29;20136;-81
2022/09/30 11:24:13;;;;;;;2.63;0.57;;;16.00;71.70;;;;;;4881782;29;20037;-80
2022/09/30 11:26:56;;;;;;;2.65;0.70;;;16.00;71.70;;;;;;4880843;29;20060;-80
2022/09/30 11:29:31;;;;;;;3.42;0.80;;;16.00;71.80;;;;;;4880667;29;20060;-73
2022/09/30 11:32:10;;;;;;;1.90;0.73;;;16.00;71.60;;;;;;4881118;29;20049;-80
2022/09/30 11:34:45;;;;;;;3.17;0.50;;;16.10;71.20;;;;;;4880753;29;20053;-80
2022/09/30 11:37:23;;;;;;;1.88;0.57;;;16.10;71.20;;;;;;4881825;29;20049;-81
2022/09/30 11:40:11;;;;;;;1.83;0.63;;;16.10;71.30;;;;;;4881437;29;20095;-82
2022/09/30 11:43:01;;;;;;;1.58;0.80;;;16.00;71.30;;;;;;4864546;29;20061;-81
2022/09/30 11:45:53;;;;;;;3.75;0.63;;;16.10;71.40;;;;;;4881215;29;20479;-76
2022/09/30 11:48:35;;;;;;;1.88;0.63;;;16.10;71.20;;;;;;4878530;29;20092;-81
2022/09/30 11:51:13;;;;;;;5.35;0.70;;;16.10;71.10;;;;;;4881477;29;20060;-76
2022/09/30 11:54:03;;;;;;;3.88;0.98;;;16.10;71.10;;;;;;4881564;29;20092;-78
2022/09/30 11:56:37;;;;;;;6.47;0.47;;;16.10;70.60;;;;;;4881050;29;20184;-80
2022/09/30 11:59:11;;;;;;;3.40;0.50;;;16.10;71.20;;;;;;4881174;29;20049;-80
2022/09/30 12:01:42;;;;;;;2.97;0.32;;;16.10;70.80;;;;;;4879990;29;20128;-80
2022/09/30 12:04:28;;;;;;;5.05;0.52;;;16.10;70.90;;;;;;4881527;29;20112;-81
2022/09/30 12:06:57;;;;;;;3.00;0.30;;;16.10;70.90;;;;;;4864932;29;20045;-81
2022/09/30 12:09:45;;;;;;;2.35;0.38;;;16.10;71.00;;;;;;4881917;29;20080;-79
2022/09/30 12:12:13;;;;;;;3.15;0.20;;;16.10;71.00;;;;;;4880294;29;20049;-80
2022/09/30 12:14:42;;;;;;;2.67;0.32;;;16.10;71.10;;;;;;4864899;29;20068;-80
2022/09/30 12:17:17;;;;;;;0.70;0.13;;;16.10;71.10;;;;;;4880400;29;20208;-79
2022/09/30 12:19:54;;;;;;;1.33;0.40;;;16.10;71.00;;;;;;4865135;29;20079;-81
2022/09/30 12:22:35;;;;;;;1.88;0.40;;;16.10;71.00;;;;;;4864382;29;20049;-80
2022/09/30 12:25:10;;;;;;;1.67;0.10;;;16.10;71.00;;;;;;4881324;29;20053;-81
2022/09/30 12:27:47;;;;;;;1.58;0.30;;;16.10;71.10;;;;;;4881333;29;20140;-81
2022/09/30 12:30:21;;;;;;;0.30;0.10;;;16.10;71.10;;;;;;4881127;29;20063;-76
2022/09/30 12:33:20;;;;;;;10.90;1.38;;;16.10;71.00;;;;;;4880762;29;20147;-77
2022/09/30 12:36:09;;;;;;;6.95;0.88;;;16.10;71.00;;;;;;4881274;29;20361;-79
2022/09/30 12:38:56;;;;;;;7.25;0.80;;;16.20;71.10;;;;;;4865195;29;20117;-80
2022/09/30 12:41:28;;;;;;;10.93;1.05;;;16.20;71.10;;;;;;4880596;29;20060;-81
2022/09/30 12:51:40;;;;;;;2.47;0.57;;;16.30;70.80;;;;;;4784053;29;20091;-78
2022/09/30 12:54:17;;;;;;;4.38;0.60;;;16.30;71.00;;;;;;4778396;29;20053;-79
2022/09/30 14:42:51;;;;;;;17.38;1.70;;;16.30;70.70;;;;;;4873028;23;20050;-75
2022/09/30 14:45:24;;;;;;;16.92;1.75;;;16.30;70.90;;;;;;4826937;29;20058;-78
2022/09/30 14:47:52;;;;;;;;;;;16.30;70.90;;;;;;4835719;29;20041;-75
2022/09/30 14:50:23;;;;;;;10.27;1.77;;;16.30;71.10;;;;;;4845304;29;19936;-75
2022/09/30 14:52:54;;;;;;;8.30;1.45;;;16.30;71.00;;;;;;4845062;29;20111;-74
2022/09/30 14:55:38;;;;;;;7.07;1.25;;;16.30;71.10;;;;;;4845131;29;20046;-76
2022/09/30 14:58:20;;;;;;;7.30;1.08;;;16.30;71.10;;;;;;4845281;29;20056;-76
2022/09/30 15:00:56;;;;;;;11.30;1.58;;;16.30;71.20;;;;;;4845160;29;20061;-76
2022/09/30 15:03:24;;;;;;;7.88;1.33;;;16.30;71.20;;;;;;4845329;29;20377;-77
2022/09/30 15:05:49;;;;;;;9.18;1.50;;;16.30;71.30;;;;;;4856400;29;20365;-77
2022/09/30 15:08:22;;;;;;;14.02;1.20;;;16.30;71.30;;;;;;4862963;29;20057;-81
2022/09/30 15:10:50;;;;;;;8.27;1.38;;;16.30;71.00;;;;;;4863344;29;20526;-76
2022/09/30 15:13:36;;;;;;;11.35;1.27;;;16.30;70.90;;;;;;4863510;29;20049;-78
2022/09/30 15:16:02;;;;;;;6.40;1.00;;;16.40;70.80;;;;;;4863259;29;20046;-77
2022/09/30 15:18:41;;;;;;;4.68;0.93;;;16.30;70.80;;;;;;4863683;29;20076;-76
2022/09/30 15:21:11;;;;;;;5.57;0.90;;;16.30;70.80;;;;;;4863953;29;20117;-76
2022/09/30 15:23:41;;;;;;;4.97;0.93;;;16.30;70.80;;;;;;4863383;29;20466;-77
2022/09/30 15:26:09;;;;;;;12.90;1.10;;;16.30;70.70;;;;;;4862452;29;20057;-78
2022/09/30 15:28:36;;;;;;;6.50;1.02;;;16.40;70.80;;;;;;4863570;29;20053;-77
2022/09/30 15:31:03;;;;;;;10.20;1.60;;;16.40;70.80;;;;;;4862619;29;20179;-77
2022/09/30 15:33:33;;;;;;;6.75;0.90;;;16.30;70.90;;;;;;4862695;29;20059;-78
2022/09/30 15:36:15;;;;;;;5.47;0.80;;;16.40;71.10;;;;;;4862780;29;20081;-77
2022/09/30 15:38:50;;;;;;;9.38;1.23;;;16.30;71.10;;;;;;4862957;29;20049;-77
2022/09/30 18:19:07;;;;;;;9.48;3.75;;;16.50;70.20;;;;;;5184012;23;20053;-73
2022/09/30 18:21:35;;;;;;;4.97;3.78;;;16.50;69.40;;;;;;4847234;29;20088;-74
2022/09/30 18:24:02;;;;;;;8.98;3.80;;;16.40;69.00;;;;;;4864517;29;20045;-74
2022/09/30 18:26:30;;;;;;;4.93;3.60;;;16.40;68.70;;;;;;4864219;29;20049;-74
2022/09/30 18:28:59;;;;;;;4.30;3.58;;;16.40;68.50;;;;;;4864541;29;20056;-76
2022/09/30 18:31:33;;;;;;;6.63;3.45;;;16.40;68.70;;;;;;4864077;29;20445;-73
2022/09/30 18:34:00;;;;;;;6.50;2.67;;;16.40;69.40;;;;;;4863638;29;20132;-74
2022/09/30 18:36:31;;;;;;;9.63;3.22;;;16.40;69.30;;;;;;4864037;29;20045;-73
2022/09/30 18:38:58;;;;;;;9.93;3.25;;;16.40;69.70;;;;;;4864470;29;20061;-73
2022/09/30 18:41:25;;;;;;;4.75;2.80;;;16.40;69.80;;;;;;4864166;29;20049;-73
2022/09/30 18:43:58;;;;;;;5.78;2.72;;;16.40;70.00;;;;;;4863842;29;20049;-73
2022/09/30 18:46:27;;;;;;;8.77;2.90;;;16.40;70.20;;;;;;4864505;29;20049;-74
2022/09/30 18:48:54;;;;;;;13.05;2.60;;;16.40;70.30;;;;;;4847639;29;20053;-73
2022/09/30 18:51:23;;;;;;;6.30;2.60;;;16.40;70.30;;;;;;4863775;29;20053;-73
2022/09/30 18:53:57;;;;;;;18.30;3.20;;;16.40;70.20;;;;;;4863834;29;20054;-73
2022/09/30 18:56:24;;;;;;;15.55;2.90;;;16.40;70.10;;;;;;4863832;29;20049;-74
2022/09/30 18:58:51;;;;;;;16.15;3.22;;;16.50;70.20;;;;;;4864044;29;20042;-74
2022/09/30 19:01:18;;;;;;;9.73;2.55;;;16.50;70.80;;;;;;4863825;29;20061;-73
2022/09/30 19:03:43;;;;;;;19.17;3.63;;;16.50;70.50;;;;;;4863825;29;20084;-73
2022/09/30 19:06:09;;;;;;;20.42;4.35;;;16.50;70.20;;;;;;4864162;29;20481;-73
2022/09/30 19:08:35;;;;;;;14.02;3.42;;;16.50;69.90;;;;;;4863629;29;20061;-73
2022/09/30 19:11:10;;;;;;;13.60;4.38;;;16.50;69.80;;;;;;4863014;29;20049;-74
2022/09/30 19:13:36;;;;;;;15.32;3.88;;;16.50;69.70;;;;;;4863181;29;20046;-74